Flight Track Log - Related Links

Times and Time Zones

All times are in EDT time to prevent confusion due to time zone crossing. See the VH-YNL flight status page for this flight to view local times or setup timezone preferences in your user account.

Time Position Orientation Groundspeed Altitude Reporting Facility
EDT Latitude Longitude Course Direction KTS MPH feet Rate Location/Type
Thu 01:42:13 AM -34.8206 138.6139 243° Southwest 79 91 1,000  Level Aus ATC (RADAR)
Thu 01:43:13 AM -34.8294 138.5928 243° Southwest 68 78 1,900 857 Climbing Aus ATC (RADAR)
Thu 01:43:58 AM -34.8349 138.5786 245° Southwest 61 70 2,500 776 Climbing Aus ATC (RADAR)
Thu 01:44:38 AM -34.8411 138.5655 240° Southwest 66 76 3,000 467 Climbing Aus ATC (RADAR)
Thu 01:45:28 AM -34.8509 138.5448 240° Southwest 89 102 3,200 58 Climbing Aus ATC (RADAR)
Thu 01:46:22 AM -34.8456 138.5157 282° West 97 112 3,100 -114 Descending Aus ATC (RADAR)
Thu 01:47:13 AM -34.8390 138.4907 288° West 93 107 3,000  Descending Aus ATC (RADAR)
Thu 01:48:17 AM -34.8288 138.4639 295° West 82 94 3,100 385 Climbing Aus ATC (RADAR)
Thu 01:49:02 AM -34.8071 138.4745 22° Northeast 111 128 3,700 600 Climbing Aus ATC (RADAR)
Thu 01:49:37 AM -34.7898 138.4842 25° Northeast 120 138 3,900 141 Climbing Aus ATC (RADAR)
Thu 01:50:27 AM -34.7604 138.4995 23° Northeast 137 158 3,900 -55 Level Aus ATC (RADAR)
Thu 01:51:27 AM -34.7272 138.5185 25° Northeast 130 150 3,800 -48 Descending Aus ATC (RADAR)
Thu 01:52:32 AM -34.7033 138.5616 56° Northeast 143 165 3,800 48 Level Aus ATC (RADAR)
Thu 01:53:32 AM -34.6841 138.6026 60° Northeast 137 158 3,900  Climbing Aus ATC (RADAR)
Thu 01:54:22 AM -34.6963 138.6399 112° Southeast 140 161 3,800 -71 Descending Aus ATC (RADAR)
Thu 01:54:57 AM -34.7046 138.6646 112° Southeast 138 159 3,800 75 Level Aus ATC (RADAR)
Thu 01:55:42 AM -34.7147 138.6975 111° Southeast 138 159 3,900  Climbing Aus ATC (RADAR)
Thu 01:56:12 AM -34.7219 138.7199 111° Southeast 142 163 3,800 -121 Descending Aus ATC (RADAR)
Thu 01:57:21 AM -34.7374 138.7724 110° East 142 163 3,700  Descending Aus ATC (RADAR)
Thu 01:58:11 AM -34.7515 138.8062 117° Southeast 138 159 3,800 71 Climbing Aus ATC (RADAR)
Thu 01:58:46 AM -34.7661 138.7976 206° Southwest 102 117 3,800 71 Level Aus ATC (RADAR)
Thu 01:59:36 AM -34.7831 138.7796 221° Southwest 98 113 3,900  Climbing Aus ATC (RADAR)
Thu 02:00:11 AM -34.7911 138.7642 238° Southwest 91 105 3,800  Descending Aus ATC (RADAR)
Thu 02:01:01 AM -34.8034 138.7431 235° Southwest 94 108 3,900 -155 Climbing Aus ATC (RADAR)
Thu 02:02:46 AM -34.8340 138.7010 228° Southwest 92 106 3,400 -348 Descending Aus ATC (RADAR)
Thu 02:03:36 AM -34.8470 138.6819 230° Southwest 89 102 3,000 -505 Descending Aus ATC (RADAR)
Thu 02:04:21 AM -34.8585 138.6638 232° Southwest 92 106 2,600 -675 Descending Aus ATC (RADAR)
Thu 02:04:56 AM -34.8667 138.6504 233° Southwest 86 99 2,100 -635 Descending Aus ATC (RADAR)
Thu 02:05:46 AM -34.8793 138.6332 228° Southwest 81 93 1,700 -440 Descending Aus ATC (RADAR)
Thu 02:06:45 AM -34.8917 138.6151 230° Southwest 68 78 1,300 -339 Descending Aus ATC (RADAR)
Thu 02:07:50 AM -34.9056 138.5945 231° Southwest 73 84 1,000 48 Descending Aus ATC (RADAR)
Thu 02:08:50 AM -34.9197 138.5743 230° Southwest 80 92 1,400 568 Climbing Aus ATC (RADAR)
Thu 02:09:25 AM -34.9269 138.5634 231° Southwest 70 81 1,900 800 Climbing Aus ATC (RADAR)
Thu 02:10:05 AM -34.9300 138.5504 254° West 70 81 2,400 733 Climbing Aus ATC (RADAR)
Thu 02:10:55 AM -34.9212 138.5342 304° West 69 79 3,000 709 Climbing Aus ATC (RADAR)
Thu 02:11:55 AM -34.8952 138.5447 18° North 106 122 3,700 444 Climbing Aus ATC (RADAR)
Thu 02:13:10 AM -34.8559 138.5668 25° Northeast 133 153 4,000 144 Climbing Aus ATC (RADAR)
Thu 02:14:00 AM -34.8272 138.5814 23° Northeast 134 154 4,000  Level Aus ATC (RADAR)
Thu 02:14:55 AM -34.7960 138.5975 23° Northeast 133 153 4,000  Level Aus ATC (RADAR)
Thu 02:15:30 AM -34.7759 138.6080 23° Northeast 136 157 4,000 75 Level Aus ATC (RADAR)
Thu 02:16:15 AM -34.7509 138.6211 23° Northeast 130 150 4,100 44 Climbing Aus ATC (RADAR)
Thu 02:17:45 AM -34.7001 138.6489 24° Northeast 133 153 4,100 -41 Level Aus ATC (RADAR)
Thu 02:18:40 AM -34.6726 138.6509 North 109 125 4,000  Descending Aus ATC (RADAR)
Thu 02:19:14 AM -34.6845 138.6418 212° Southwest 97 112 4,100  Climbing Aus ATC (RADAR)
Thu 02:19:54 AM -34.6941 138.6706 112° Southeast 143 165 4,000  Descending Aus ATC (RADAR)
Thu 02:20:29 AM -34.6965 138.7006 96° East 151 174 4,100  Climbing Aus ATC (RADAR)
Thu 02:21:19 AM -34.7007 138.7432 97° East 153 176 4,000 -133 Descending Aus ATC (RADAR)
Thu 02:22:44 AM -34.7310 138.8011 122° Southeast 138 159 3,800 -104 Descending Aus ATC (RADAR)
Thu 02:23:14 AM -34.7458 138.8024 176° South 112 129 3,800  Level Aus ATC (RADAR)
Thu 02:24:14 AM -34.7676 138.7862 211° Southwest 92 106 3,800  Level Aus ATC (RADAR)
Thu 02:25:04 AM -34.7831 138.7691 222° Southwest 90 104 3,800  Level Aus ATC (RADAR)
Thu 02:25:39 AM -34.7934 138.7574 223° Southwest 87 100 3,800 75 Level Aus ATC (RADAR)
Thu 02:26:24 AM -34.8041 138.7414 231° Southwest 83 96 3,900 -151 Climbing Aus ATC (RADAR)
Thu 02:27:38 AM -34.8240 138.7109 232° Southwest 91 105 3,500 -421 Descending Aus ATC (RADAR)
Thu 02:28:18 AM -34.8345 138.6959 230° Southwest 91 105 3,100 -560 Descending Aus ATC (RADAR)
Thu 02:28:53 AM -34.8429 138.6832 231° Southwest 84 97 2,800 -494 Descending Aus ATC (RADAR)
Thu 02:29:43 AM -34.8555 138.6671 226° Southwest 81 93 2,400 -327 Descending Aus ATC (RADAR)
Thu 02:30:43 AM -34.8702 138.6460 230° Southwest 82 94 2,200 -343 Descending Aus ATC (RADAR)
Thu 02:31:28 AM -34.8811 138.6299 230° Southwest 82 94 1,800 -525 Descending Aus ATC (RADAR)
Thu 02:32:03 AM -34.8896 138.6178 229° Southwest 79 91 1,500 -457 Descending Aus ATC (RADAR)
Thu 02:33:13 AM -34.9066 138.5932 230° Southwest 84 97 1,000 -415 Descending Aus ATC (RADAR)
Thu 02:34:13 AM -34.9224 138.5703 230° Southwest 91 105 600 -218 Descending Aus ATC (RADAR)
Thu 02:35:03 AM -34.9363 138.5501 230° Southwest 94 108 600 353 Level Aus ATC (RADAR)
Thu 02:35:38 AM -34.9456 138.5368 230° Southwest 87 100 1,100 835 Climbing Aus ATC (RADAR)
Thu 02:36:22 AM -34.9554 138.5228 229° Southwest 70 81 1,700 808 Climbing Aus ATC (RADAR)
Thu 02:37:22 AM -34.9673 138.5048 231° Southwest 67 77 2,500 750 Climbing Aus ATC (RADAR)
Thu 02:38:22 AM -34.9853 138.4998 193° South 85 98 3,200 733 Climbing Aus ATC (RADAR)
Thu 02:38:52 AM -34.9969 138.5036 165° South 87 100 3,600 738 Climbing Aus ATC (RADAR)
Thu 02:39:27 AM -35.0109 138.5080 165° South 90 104 4,000 429 Climbing Aus ATC (RADAR)
Thu 02:40:02 AM -35.0180 138.5318 110° East 134 154 4,100  Climbing Aus ATC (RADAR)
Thu 02:40:37 AM -35.0231 138.5611 102° East 151 174 4,000 -71 Descending Aus ATC (RADAR)
Thu 02:41:27 AM -35.0310 138.6020 103° East 150 173 4,000 55 Level Aus ATC (RADAR)
Thu 02:42:27 AM -35.0071 138.6422 54° Northeast 146 168 4,100  Climbing Aus ATC (RADAR)
Thu 02:43:22 AM -34.9844 138.6798 54° Northeast 152 175 4,000 -52 Descending Aus ATC (RADAR)
Thu 02:44:22 AM -34.9588 138.7190 51° Northeast 150 173 4,000 -57 Level Aus ATC (RADAR)
Thu 02:45:07 AM -34.9382 138.7467 48° Northeast 148 170 3,900 -150 Descending Aus ATC (RADAR)
Thu 02:45:42 AM -34.9227 138.7694 50° Northeast 149 171 3,800 -75 Descending Aus ATC (RADAR)
Thu 02:46:27 AM -34.9032 138.7976 50° Northeast 146 168 3,800  Level Aus ATC (RADAR)
Thu 02:47:31 AM -34.8748 138.8393 50° Northeast 150 173 3,800 55 Level Aus ATC (RADAR)
Thu 02:48:16 AM -34.8570 138.8691 54° Northeast 146 168 3,900 80 Climbing Aus ATC (RADAR)
Thu 02:48:46 AM -34.8568 138.8961 89° East 153 176 3,900 -92 Level Aus ATC (RADAR)
Thu 02:49:21 AM -34.8612 138.9238 101° East 148 170 3,800 -75 Descending Aus ATC (RADAR)
Thu 02:50:06 AM -34.8782 138.9159 201° Southwest 92 106 3,800  Level Aus ATC (RADAR)
Thu 02:50:41 AM -34.8849 138.9036 236° Southwest 77 89 3,800  Level Aus ATC (RADAR)
Thu 02:51:31 AM -34.8823 138.8851 280° West 75 86 3,800  Level Aus ATC (RADAR)
Thu 02:52:31 AM -34.8728 138.8615 296° West 80 92 3,800  Level Aus ATC (RADAR)
Thu 02:53:31 AM -34.8640 138.8388 295° West 74 85 3,800  Level Aus ATC (RADAR)
Thu 02:54:31 AM -34.8446 138.8300 340° North 111 128 3,800  Level Aus ATC (RADAR)
Thu 02:55:16 AM -34.8362 138.8666 74° East 147 169 3,800  Level Aus ATC (RADAR)
Thu 02:55:51 AM -34.8303 138.8949 76° East 147 169 3,800  Level Aus ATC (RADAR)
Thu 02:56:46 AM -34.8474 138.9075 149° Southeast 99 114 3,800 55 Level Aus ATC (RADAR)
Thu 02:57:40 AM -34.8543 138.8873 247° West 75 86 3,900 53 Climbing Aus ATC (RADAR)
Thu 02:58:40 AM -34.8652 138.8650 239° Southwest 76 87 3,900 -67 Level Aus ATC (RADAR)
Thu 02:59:10 AM -34.8690 138.8532 248° West 76 87 3,800 -92 Descending Aus ATC (RADAR)
Thu 02:59:45 AM -34.8725 138.8390 253° West 76 87 3,800  Level Aus ATC (RADAR)
Thu 03:00:22 AM -34.8585 138.8382 357° North 104 120 3,800  Level Aus ATC (RADAR)
Thu 03:00:55 AM -34.8626 138.8655 101° East 140 161 3,800 72 Level Aus ATC (RADAR)
Thu 03:01:45 AM -34.8793 138.8998 121° Southeast 141 162 3,900  Climbing Aus ATC (RADAR)
Thu 03:02:45 AM -34.8940 138.8963 191° South 90 104 3,800 -55 Descending Aus ATC (RADAR)
Thu 03:03:35 AM -34.8833 138.8775 305° West 82 94 3,800 55 Level Aus ATC (RADAR)
Thu 03:04:35 AM -34.8721 138.8546 301° West 78 90 3,900  Climbing Aus ATC (RADAR)
Thu 03:05:20 AM -34.8618 138.8386 308° West 83 96 3,800 -75 Descending Aus ATC (RADAR)
Thu 03:05:55 AM -34.8493 138.8595 54° Northeast 131 151 3,800  Level Aus ATC (RADAR)
Thu 03:06:45 AM -34.8652 138.8938 119° Southeast 139 160 3,800 55 Level Aus ATC (RADAR)
Thu 03:07:45 AM -34.8890 138.9162 142° Southeast 108 124 3,900  Climbing Aus ATC (RADAR)
Thu 03:08:44 AM -34.8829 138.8904 286° West 80 92 3,800 -53 Descending Aus ATC (RADAR)
Thu 03:09:39 AM -34.8759 138.8674 290° West 81 93 3,800  Level Aus ATC (RADAR)
Thu 03:10:29 AM -34.8691 138.8472 293° West 80 92 3,800  Level Aus ATC (RADAR)
Thu 03:11:09 AM -34.8576 138.8390 330° Northwest 88 101 3,800  Level Aus ATC (RADAR)
Thu 03:11:59 AM -34.8591 138.8740 93° East 137 158 3,800  Level Aus ATC (RADAR)
Thu 03:12:59 AM -34.8782 138.9142 120° Southeast 138 159 3,800  Level Aus ATC (RADAR)
Thu 03:14:09 AM -34.8956 138.9117 187° South 82 94 3,800 336 Level Aus ATC (RADAR)
Thu 03:15:04 AM -34.9038 138.8972 235° Southwest 68 78 4,500 660 Climbing Aus ATC (RADAR)
Thu 03:15:49 AM -34.9140 138.8881 216° Southwest 59 68 4,900 424 Climbing Aus ATC (RADAR)
Thu 03:16:29 AM -34.8964 138.8898 North 108 124 5,100 71 Climbing Aus ATC (RADAR)
Thu 03:17:14 AM -34.8710 138.9057 27° Northeast 134 154 5,000 -75 Descending Aus ATC (RADAR)
Thu 03:17:49 AM -34.8521 138.9176 27° Northeast 133 153 5,000 53 Level Aus ATC (RADAR)
Thu 03:19:08 AM -34.8082 138.9351 18° North 122 140 5,100  Climbing Aus ATC (RADAR)
Thu 03:20:08 AM -34.7743 138.9416 North 124 143 5,000  Descending Aus ATC (RADAR)
Thu 03:20:43 AM -34.7561 138.9396 355° North 112 129 5,100  Climbing Aus ATC (RADAR)
Thu 03:21:18 AM -34.7389 138.9354 349° North 109 125 5,000 -71 Descending Aus ATC (RADAR)
Thu 03:22:08 AM -34.7145 138.9305 351° North 106 122 5,000 55 Level Aus ATC (RADAR)
Thu 03:23:08 AM -34.6852 138.9247 351° North 108 124 5,100  Climbing Aus ATC (RADAR)
Thu 03:24:08 AM -34.6582 138.9134 341° North 102 117 5,000  Descending Aus ATC (RADAR)
Thu 03:25:08 AM -34.6331 138.8997 336° Northwest 98 113 5,100  Climbing Aus ATC (RADAR)
Thu 03:25:53 AM -34.6135 138.8886 335° Northwest 102 117 5,000 -71 Descending Aus ATC (RADAR)
Thu 03:26:33 AM -34.5975 138.8786 333° Northwest 96 110 5,000 71 Level Aus ATC (RADAR)
Thu 03:27:18 AM -34.5793 138.8667 332° Northwest 100 115 5,100 57 Climbing Aus ATC (RADAR)
Thu 03:28:18 AM -34.5535 138.8493 331° Northwest 108 124 5,100  Level Aus ATC (RADAR)
Thu 03:29:13 AM -34.5304 138.8340 331° Northwest 104 120 5,100 -53 Level Aus ATC (RADAR)
Thu 03:30:12 AM -34.5047 138.8182 333° Northwest 102 117 5,000 -58 Descending Aus ATC (RADAR)
Thu 03:30:57 AM -34.4854 138.8082 337° Northwest 102 117 5,000  Level Aus ATC (RADAR)
Thu 03:31:37 AM -34.4685 138.7992 336° Northwest 99 114 5,000 63 Level Aus ATC (RADAR)
Thu 03:32:32 AM -34.4455 138.7848 333° Northwest 101 116 5,100 -55 Climbing Aus ATC (RADAR)
Thu 03:33:27 AM -34.4210 138.7719 337° Northwest 107 123 4,900 -382 Descending Aus ATC (RADAR)
Thu 03:34:22 AM -34.3986 138.7578 333° Northwest 102 117 4,400 -600 Descending Aus ATC (RADAR)
Thu 03:35:27 AM -34.3836 138.7315 304° West 90 104 3,700 -571 Descending Aus ATC (RADAR)
Thu 03:36:07 AM -34.3794 138.7130 285° West 89 102 3,400 -480 Descending Aus ATC (RADAR)
Thu 03:36:42 AM -34.3867 138.6981 239° Southwest 95 109 3,100 -282 Descending Aus ATC (RADAR)
Thu 03:37:32 AM -34.4048 138.6844 212° Southwest 91 105 3,000 -55 Descending Aus ATC (RADAR)
Thu 03:38:32 AM -34.4281 138.6694 208° Southwest 99 114 3,000  Level Aus ATC (RADAR)
Thu 03:39:36 AM -34.4571 138.6632 190° South 98 113 3,000 48 Level Aus ATC (RADAR)
Thu 03:40:36 AM -34.4840 138.6596 186° South 94 108 3,100 57 Climbing Aus ATC (RADAR)
Thu 03:41:21 AM -34.5028 138.6528 197° South 96 110 3,100  Level Aus ATC (RADAR)
Thu 03:41:56 AM -34.5192 138.6512 185° South 102 117 3,100  Level Aus ATC (RADAR)
Thu 03:42:41 AM -34.5396 138.6474 189° South 99 114 3,100 -300 Level Aus ATC (RADAR)
Thu 03:43:36 AM -34.5638 138.6429 189° South 96 110 2,600 -545 Descending Aus ATC (RADAR)
Thu 03:44:31 AM -34.5879 138.6367 192° South 98 113 2,100 -494 Descending Aus ATC (RADAR)
Thu 03:45:01 AM -34.6017 138.6348 186° South 101 116 1,900 -462 Descending Aus ATC (RADAR)
Thu 03:45:36 AM -34.6176 138.6325 187° South 99 114 1,600 -480 Descending Aus ATC (RADAR)
Thu 03:46:16 AM -34.6354 138.6285 190° South 99 114 1,300 -560 Descending Aus ATC (RADAR)
Thu 03:46:51 AM -34.6517 138.6263 187° South 99 114 900 -525 Descending Aus ATC (RADAR)
Thu 03:47:36 AM -34.6715 138.6221 190° South 98 113 600 -171 Descending Aus ATC (RADAR)
Thu 03:48:36 AM -34.7005 138.6229 179° South 108 124 600 53 Level Aus ATC (RADAR)
Thu 03:49:30 AM -34.7277 138.6311 166° South 106 122 700 105 Climbing Aus ATC (RADAR)
Thu 03:50:30 AM -34.7558 138.6406 164° South 108 124 800 109 Climbing Aus ATC (RADAR)
Thu 03:51:20 AM -34.7774 138.6581 146° Southeast 110 127 900 -141 Climbing Aus ATC (RADAR)
Thu 03:51:55 AM -34.7900 138.6574 183° South 78 90 600 -565 Descending Aus ATC (RADAR)
Thu 03:52:45 AM -34.7924 138.6405 260° West 58 67 100 -52 Descending Aus ATC (RADAR)
Thu 03:53:50 AM -34.7942 138.6181 264° West 73 84 500 470 Climbing Aus ATC (RADAR)
Thu 03:54:40 AM -34.7814 138.6087 329° Northwest 94 108 1,000 600 Climbing Aus ATC (RADAR)

Login

Don't have an account? Register now (free) for customized features, flight alerts, and more!